createdAt,value
2018-04-23T00:01:51.176Z,68.87
2018-04-23T00:04:17.190Z,68.62
2018-04-23T00:06:43.296Z,69.29
2018-04-23T00:09:09.357Z,70.36
2018-04-23T00:11:35.414Z,70.43
2018-04-23T00:14:01.421Z,70.47
2018-04-23T00:16:27.504Z,70.94
2018-04-23T00:18:53.520Z,70.61
2018-04-23T00:21:19.555Z,71.25
2018-04-23T00:23:45.593Z,71.09
2018-04-23T00:26:11.629Z,71.32
2018-04-23T00:28:37.651Z,71.55
2018-04-23T00:31:03.661Z,71.87
2018-04-23T00:33:29.802Z,71.85
2018-04-23T00:35:55.839Z,72.14
2018-04-23T00:38:21.845Z,72.56
2018-04-23T00:40:47.861Z,72.32
2018-04-23T00:43:13.913Z,72.41
2018-04-23T00:45:39.932Z,72.55
2018-04-23T00:48:05.924Z,73.98
2018-04-23T00:50:31.962Z,74.91
2018-04-23T00:55:57.717Z,74.43
2018-04-23T00:58:23.776Z,75.29
2018-04-23T01:00:49.800Z,75.04
2018-04-23T01:03:15.840Z,74.67
2018-04-23T01:05:41.879Z,74.86
2018-04-23T01:08:07.909Z,75.20
2018-04-23T01:10:33.921Z,75.00
2018-04-23T01:13:00.005Z,74.23
2018-04-23T01:15:26.089Z,74.40
2018-04-23T01:17:52.076Z,74.59
2018-04-23T01:20:18.109Z,74.39
2018-04-23T01:22:44.129Z,74.36
2018-04-23T01:25:10.177Z,73.89
2018-04-23T01:27:36.373Z,73.43
2018-04-23T01:30:02.383Z,73.48
2018-04-23T01:32:28.398Z,72.87
2018-04-23T01:34:54.381Z,72.78
2018-04-23T01:37:20.528Z,72.43
2018-04-23T01:39:46.597Z,72.63
2018-04-23T01:42:13.655Z,72.24
2018-04-23T01:44:39.660Z,72.52
2018-04-23T01:47:05.693Z,72.22
2018-04-23T01:49:31.696Z,72.40
2018-04-23T01:51:57.693Z,72.25
2018-04-23T01:54:23.789Z,72.66
2018-04-23T01:56:49.820Z,72.84
2018-04-23T01:59:15.865Z,72.63
2018-04-23T02:01:41.959Z,72.86
2018-04-23T02:04:07.965Z,72.60
2018-04-23T02:06:34.068Z,72.59
2018-04-23T02:09:00.066Z,72.60
2018-04-23T02:11:26.128Z,72.78
2018-04-23T02:13:52.185Z,73.11
2018-04-23T02:16:18.194Z,72.69
2018-04-23T02:18:44.209Z,73.00
2018-04-23T02:21:10.285Z,73.20
2018-04-23T02:23:36.308Z,73.14
2018-04-23T02:26:02.332Z,72.93
2018-04-23T02:28:28.328Z,73.19
2018-04-23T02:30:54.428Z,73.18
2018-04-23T02:33:20.462Z,73.14
2018-04-23T02:35:46.541Z,73.20
2018-04-23T02:38:12.552Z,73.15
2018-04-23T02:40:38.793Z,73.14
2018-04-23T02:43:04.817Z,73.46
2018-04-23T02:45:30.896Z,73.89
2018-04-23T02:47:56.998Z,74.11
2018-04-23T02:50:23.038Z,74.02
2018-04-23T02:52:49.149Z,74.22
2018-04-23T02:55:15.282Z,74.42
2018-04-23T02:57:41.789Z,74.36
2018-04-23T03:00:07.858Z,74.64
2018-04-23T03:02:33.913Z,74.73
2018-04-23T03:04:59.958Z,74.62
2018-04-23T03:07:26.013Z,74.91
2018-04-23T03:09:52.079Z,75.38
2018-04-23T03:12:18.148Z,75.54
2018-04-23T03:14:44.144Z,75.68
2018-04-23T03:17:10.227Z,76.06
2018-04-23T03:19:36.212Z,76.07
2018-04-23T03:22:02.187Z,76.26
2018-04-23T03:24:28.678Z,76.53
2018-04-23T03:26:54.781Z,76.95
2018-04-23T03:29:21.263Z,76.87
2018-04-23T03:31:47.511Z,76.99
2018-04-23T03:34:13.531Z,77.36
2018-04-23T03:36:39.864Z,77.22
2018-04-23T03:39:05.880Z,77.11
2018-04-23T03:41:31.882Z,77.75
2018-04-23T03:43:57.903Z,77.60
2018-04-23T03:46:23.926Z,78.00
2018-04-23T03:48:49.968Z,77.99
2018-04-23T03:51:15.956Z,78.39
2018-04-23T03:53:41.959Z,78.09
2018-04-23T03:56:07.996Z,78.57
2018-04-23T03:58:34.005Z,78.58
2018-04-23T04:01:00.035Z,78.73
2018-04-23T04:03:26.026Z,78.70
2018-04-23T04:05:52.033Z,78.66
2018-04-23T04:08:18.100Z,78.70
2018-04-23T04:10:44.088Z,78.63
2018-04-23T04:13:22.164Z,78.78
2018-04-23T04:16:00.256Z,78.63
2018-04-23T04:18:38.445Z,78.71
2018-04-23T04:21:04.490Z,78.76
2018-04-23T04:23:30.616Z,79.52
2018-04-23T04:25:56.622Z,79.29
2018-04-23T04:28:22.663Z,79.68
2018-04-23T04:30:48.901Z,79.29
2018-04-23T04:33:14.998Z,79.50
2018-04-23T04:35:41.054Z,79.47
2018-04-23T04:38:07.042Z,79.24
2018-04-23T04:40:33.176Z,79.20
2018-04-23T04:42:59.716Z,79.46
2018-04-23T04:45:25.821Z,79.50
2018-04-23T04:47:51.847Z,79.81
2018-04-23T04:50:17.986Z,79.47
2018-04-23T04:52:44.001Z,80.00
2018-04-23T04:55:10.072Z,80.06
2018-04-23T04:57:36.144Z,80.02
2018-04-23T05:00:02.188Z,80.04
2018-04-23T05:02:28.350Z,80.18
2018-04-23T05:04:54.387Z,79.64
2018-04-23T05:07:20.364Z,79.80
2018-04-23T05:09:46.886Z,79.80
2018-04-23T05:12:13.144Z,79.63
2018-04-23T05:14:39.281Z,79.38
2018-04-23T05:17:05.483Z,79.46
2018-04-23T05:19:31.505Z,79.23
2018-04-23T05:21:57.524Z,79.04
2018-04-23T05:24:23.624Z,79.02
2018-04-23T05:26:49.650Z,79.16
2018-04-23T05:29:15.669Z,78.34
2018-04-23T05:31:42.265Z,78.55
2018-04-23T05:34:08.268Z,78.55
2018-04-23T05:36:34.330Z,78.53
2018-04-23T05:39:00.378Z,78.31
2018-04-23T05:41:26.391Z,78.21
2018-04-23T05:43:52.446Z,77.74
2018-04-23T05:46:18.449Z,77.30
2018-04-23T05:48:44.472Z,77.11
2018-04-23T05:51:10.473Z,76.73
2018-04-23T05:53:36.522Z,76.55
2018-04-23T05:56:02.552Z,76.34
2018-04-23T05:58:28.747Z,75.84
2018-04-23T06:00:54.836Z,75.89
2018-04-23T06:03:20.836Z,75.68
2018-04-23T06:05:46.867Z,75.09
2018-04-23T06:08:12.984Z,74.65
2018-04-23T06:10:39.049Z,74.36
2018-04-23T06:13:05.059Z,74.11
2018-04-23T06:15:31.372Z,74.26
2018-04-23T06:17:57.421Z,74.01
2018-04-23T06:20:23.520Z,73.36
2018-04-23T06:22:49.698Z,72.91
2018-04-23T06:25:15.814Z,73.21
2018-04-23T06:27:41.831Z,72.19
2018-04-23T06:30:07.929Z,71.77
2018-04-23T06:32:33.992Z,71.98
2018-04-23T06:34:59.993Z,71.84
2018-04-23T06:37:29.987Z,71.78
2018-04-23T06:39:55.999Z,71.80
2018-04-23T06:42:22.444Z,71.73
2018-04-23T06:44:48.795Z,71.28
2018-04-23T06:47:15.925Z,71.02
2018-04-23T06:49:42.054Z,71.56
2018-04-23T06:52:08.076Z,71.14
2018-04-23T06:54:34.129Z,70.93
2018-04-23T06:57:00.459Z,70.84
2018-04-23T06:59:26.545Z,70.83
2018-04-23T07:01:52.610Z,70.58
2018-04-23T07:04:18.573Z,70.36
2018-04-23T07:06:45.605Z,70.48
2018-04-23T07:09:11.648Z,69.94
2018-04-23T07:11:37.773Z,69.37
2018-04-23T07:14:03.810Z,68.94
2018-04-23T07:16:29.828Z,68.62
2018-04-23T07:18:55.896Z,68.81
2018-04-23T07:21:21.973Z,67.78
2018-04-23T07:23:47.968Z,67.54
2018-04-23T07:26:13.972Z,67.36
2018-04-23T07:28:40.100Z,67.48
2018-04-23T07:31:07.412Z,67.65
2018-04-23T07:33:33.824Z,67.99
2018-04-23T07:35:59.893Z,68.17
2018-04-23T07:38:25.959Z,67.97
2018-04-23T07:40:52.041Z,67.55
2018-04-23T07:43:18.261Z,67.50
2018-04-23T07:45:44.269Z,67.43
2018-04-23T07:48:11.107Z,66.54
2018-04-23T07:50:37.234Z,65.14
2018-04-23T07:53:03.311Z,64.35
2018-04-23T07:55:29.321Z,63.60
2018-04-23T07:57:55.466Z,63.58
2018-04-23T08:00:21.604Z,63.37
2018-04-23T08:02:48.265Z,64.28
2018-04-23T08:05:14.330Z,63.51
2018-04-23T08:07:40.392Z,63.25
2018-04-23T08:10:06.443Z,63.81
2018-04-23T08:12:32.465Z,63.82
2018-04-23T08:14:58.484Z,63.97
2018-04-23T08:17:24.552Z,63.26
2018-04-23T08:19:50.601Z,63.12
2018-04-23T08:23:32.553Z,62.72
2018-04-23T08:25:58.581Z,62.46
2018-04-23T08:28:24.574Z,62.59
2018-04-23T08:30:50.582Z,62.65
2018-04-23T08:33:16.588Z,61.77
2018-04-23T08:35:42.558Z,62.03
2018-04-23T08:38:08.565Z,62.30
2018-04-23T08:40:34.575Z,60.90
2018-04-23T08:43:00.613Z,60.92
2018-04-23T08:45:26.741Z,61.52
2018-04-23T08:47:52.799Z,61.25
2018-04-23T08:50:18.853Z,59.83
2018-04-23T08:52:44.843Z,59.46
2018-04-23T08:55:11.215Z,58.31
2018-04-23T08:57:37.349Z,57.82
2018-04-23T09:00:03.618Z,58.13
2018-04-23T09:02:29.575Z,57.91
2018-04-23T09:04:55.620Z,58.20
2018-04-23T09:07:21.670Z,58.56
2018-04-23T09:09:47.657Z,59.31
2018-04-23T09:12:13.660Z,59.06
2018-04-23T09:14:39.804Z,59.95
2018-04-23T09:17:05.806Z,59.30
2018-04-23T09:19:31.806Z,59.36
2018-04-23T09:21:57.868Z,58.57
2018-04-23T09:24:23.999Z,58.37
2018-04-23T09:26:50.021Z,58.35
2018-04-23T09:29:16.052Z,58.82
2018-04-23T09:31:42.048Z,58.45
2018-04-23T09:34:08.097Z,57.92
2018-04-23T09:36:34.230Z,56.50
2018-04-23T09:39:00.291Z,56.94
2018-04-23T09:41:26.249Z,57.02
2018-04-23T09:43:52.288Z,57.51
2018-04-23T09:46:18.297Z,57.16
2018-04-23T09:48:44.310Z,55.43
2018-04-23T09:51:10.361Z,55.03
2018-04-23T09:53:36.392Z,53.50
2018-04-23T09:56:02.405Z,53.43
2018-04-23T09:58:28.422Z,53.86
2018-04-23T10:00:54.520Z,53.60
2018-04-23T10:03:24.476Z,52.91
2018-04-23T10:05:50.537Z,53.90
2018-04-23T10:08:16.533Z,53.38
2018-04-23T10:10:42.541Z,54.61
2018-04-23T10:13:08.626Z,54.98
2018-04-23T10:15:34.790Z,53.20
2018-04-23T10:18:00.860Z,52.72
2018-04-23T10:20:26.888Z,52.60
2018-04-23T10:22:52.946Z,51.56
2018-04-23T10:25:19.098Z,51.47
2018-04-23T10:27:45.184Z,51.48
2018-04-23T10:30:11.238Z,48.78
2018-04-23T10:32:37.332Z,47.50
2018-04-23T10:35:04.086Z,48.23
2018-04-23T10:37:30.103Z,48.24
2018-04-23T10:39:56.107Z,46.55
2018-04-23T10:42:22.143Z,42.86
2018-04-23T10:44:48.252Z,42.10
2018-04-23T10:47:14.306Z,40.65
2018-04-23T10:49:40.313Z,39.16
2018-04-23T10:52:06.325Z,38.71
2018-04-23T10:54:32.397Z,40.91
2018-04-23T10:56:58.453Z,42.64
2018-04-23T10:59:24.455Z,43.80
2018-04-23T11:01:50.808Z,44.42
2018-04-23T11:04:16.896Z,43.08
2018-04-23T11:06:43.016Z,43.31
2018-04-23T11:09:10.095Z,41.33
2018-04-23T11:11:38.333Z,43.32
2018-04-23T11:14:04.385Z,44.56
2018-04-23T11:16:30.392Z,45.59
2018-04-23T11:18:56.434Z,41.02
2018-04-23T11:21:22.447Z,41.86
2018-04-23T11:23:48.519Z,39.92
2018-04-23T11:26:14.588Z,43.36
2018-04-23T11:28:40.659Z,42.11
2018-04-23T11:31:07.021Z,43.77
2018-04-23T11:33:33.105Z,43.19
2018-04-23T11:35:59.759Z,42.42
2018-04-23T11:38:25.786Z,39.56
2018-04-23T11:40:51.852Z,41.48
2018-04-23T11:43:17.893Z,40.85
2018-04-23T11:45:44.090Z,38.89
2018-04-23T11:48:10.129Z,38.11
2018-04-23T11:50:36.231Z,38.47
2018-04-23T11:53:02.237Z,39.19
2018-04-23T11:55:28.252Z,39.58
2018-04-23T11:57:54.284Z,40.12
2018-04-23T12:00:20.410Z,39.05
2018-04-23T12:02:47.077Z,41.25
2018-04-23T12:05:13.708Z,41.28
2018-04-23T12:07:39.821Z,41.42
2018-04-23T12:10:05.816Z,42.91
2018-04-23T12:12:31.837Z,43.48
2018-04-23T12:14:57.888Z,44.86
2018-04-23T12:17:24.811Z,45.42
2018-04-23T12:19:50.897Z,45.07
2018-04-23T12:22:16.953Z,47.07
2018-04-23T12:24:42.953Z,47.16
2018-04-23T12:27:09.131Z,46.34
2018-04-23T12:29:35.266Z,47.20
2018-04-23T12:32:01.393Z,47.96
2018-04-23T12:34:27.449Z,48.58
2018-04-23T12:36:53.520Z,48.27
2018-04-23T12:39:19.569Z,47.78
2018-04-23T12:41:45.695Z,49.32
2018-04-23T12:44:12.168Z,49.90
2018-04-23T12:46:38.199Z,49.91
2018-04-23T12:49:10.989Z,50.34
2018-04-23T12:51:37.069Z,50.42
2018-04-23T12:54:03.237Z,51.28
2018-04-23T12:56:29.347Z,51.16
2018-04-23T12:58:55.420Z,50.96
2018-04-23T13:01:21.423Z,50.98
2018-04-23T13:03:47.559Z,50.31
2018-04-23T13:06:13.597Z,49.50
2018-04-23T13:08:39.602Z,50.15
2018-04-23T13:11:05.611Z,50.87
2018-04-23T13:13:31.717Z,50.97
2018-04-23T13:15:57.844Z,49.24
2018-04-23T13:18:23.929Z,47.38
2018-04-23T13:20:49.969Z,45.04
2018-04-23T13:23:16.021Z,45.64
2018-04-23T13:25:42.108Z,43.00
2018-04-23T13:28:08.135Z,40.77
2018-04-23T13:30:34.219Z,38.48
2018-04-23T13:33:00.221Z,37.44
2018-04-23T13:35:26.236Z,36.67
2018-04-23T13:37:52.322Z,34.33
2018-04-23T13:40:18.356Z,34.64
2018-04-23T13:42:44.385Z,32.67
2018-04-23T13:45:10.444Z,32.28
2018-04-23T13:47:36.452Z,31.71
2018-04-23T13:50:02.466Z,31.01
2018-04-23T13:52:28.503Z,30.21
2018-04-23T13:54:54.498Z,29.77
2018-04-23T13:57:20.488Z,29.11
2018-04-23T13:59:46.463Z,29.29
2018-04-23T14:02:12.461Z,30.29
2018-04-23T14:04:38.445Z,29.71
2018-04-23T14:07:04.493Z,29.74
2018-04-23T14:09:30.565Z,29.51
2018-04-23T14:12:03.547Z,29.40
2018-04-23T14:14:29.684Z,28.55
2018-04-23T14:16:55.772Z,28.33
2018-04-23T14:19:21.790Z,27.44
2018-04-23T14:21:48.393Z,27.49
2018-04-23T14:24:14.390Z,27.94
2018-04-23T14:26:40.397Z,27.73
2018-04-23T14:29:06.384Z,29.57
2018-04-23T14:31:32.441Z,29.40
2018-04-23T14:33:58.458Z,27.76
2018-04-23T14:36:24.460Z,28.04
2018-04-23T14:38:50.517Z,28.48
2018-04-23T14:41:16.574Z,27.03
2018-04-23T14:43:42.701Z,25.46
2018-04-23T14:46:08.737Z,24.76
2018-04-23T14:48:34.855Z,24.70
2018-04-23T14:51:00.894Z,25.67
2018-04-23T14:53:26.914Z,28.27
2018-04-23T14:55:53.036Z,27.93
2018-04-23T14:58:19.141Z,27.73
2018-04-23T15:00:45.153Z,28.72
2018-04-23T15:03:11.145Z,28.10
2018-04-23T15:05:37.600Z,28.45
2018-04-23T15:08:03.684Z,28.56
2018-04-23T15:10:29.750Z,28.77
2018-04-23T15:12:55.861Z,28.95
2018-04-23T15:15:21.882Z,28.81
2018-04-23T15:17:48.005Z,28.89
2018-04-23T15:20:14.047Z,29.61
2018-04-23T15:22:40.065Z,30.00
2018-04-23T15:25:06.080Z,29.22
2018-04-23T15:27:32.193Z,30.50
2018-04-23T15:29:58.292Z,30.62
2018-04-23T15:32:24.276Z,32.29
2018-04-23T15:34:50.324Z,32.21
2018-04-23T15:37:16.384Z,32.49
2018-04-23T15:39:42.419Z,32.46
2018-04-23T15:42:08.473Z,32.58
2018-04-23T15:44:34.463Z,32.95
2018-04-23T15:47:00.485Z,32.66
2018-04-23T15:49:26.590Z,33.73
2018-04-23T15:51:52.602Z,32.95
2018-04-23T15:54:18.645Z,33.66
2018-04-23T15:56:44.668Z,33.45
2018-04-23T15:59:10.695Z,31.32
2018-04-23T16:01:36.713Z,28.37
2018-04-23T16:04:02.701Z,26.23
2018-04-23T16:06:28.701Z,26.24
2018-04-23T16:08:54.822Z,25.96
2018-04-23T16:11:20.850Z,26.83
2018-04-23T16:13:46.851Z,26.13
2018-04-23T16:16:12.918Z,27.85
2018-04-23T16:18:39.005Z,25.50
2018-04-23T16:21:04.999Z,28.10
2018-04-23T16:23:31.081Z,29.33
2018-04-23T16:25:57.184Z,33.75
2018-04-23T16:28:23.271Z,38.28
2018-04-23T16:30:49.316Z,40.83
2018-04-23T16:33:15.326Z,43.23
2018-04-23T16:35:41.399Z,44.77
2018-04-23T16:38:07.540Z,45.71
2018-04-23T16:40:33.695Z,46.91
2018-04-23T16:42:59.700Z,47.39
2018-04-23T16:45:25.824Z,48.28
2018-04-23T16:47:51.933Z,48.43
2018-04-23T16:50:24.874Z,49.29
2018-04-23T16:52:50.994Z,50.44
2018-04-23T16:55:17.023Z,51.45
2018-04-23T16:57:43.036Z,51.12
2018-04-23T17:00:09.218Z,51.08
2018-04-23T17:02:35.330Z,51.72
2018-04-23T17:05:01.362Z,53.06
2018-04-23T17:07:27.378Z,53.13
2018-04-23T17:09:53.471Z,53.46
2018-04-23T17:12:19.514Z,53.67
2018-04-23T17:14:45.555Z,54.78
2018-04-23T17:17:11.633Z,56.52
2018-04-23T17:19:37.676Z,57.45
2018-04-23T17:22:03.725Z,58.51
2018-04-23T17:24:29.763Z,59.16
2018-04-23T17:26:55.786Z,59.23
2018-04-23T17:29:21.962Z,59.64
2018-04-23T17:31:47.977Z,59.05
2018-04-23T17:34:14.106Z,59.64
2018-04-23T17:36:40.160Z,60.11
2018-04-23T17:39:06.389Z,60.77
2018-04-23T17:41:32.529Z,61.45
2018-04-23T17:43:58.636Z,62.26
2018-04-23T17:46:24.672Z,62.11
2018-04-23T17:48:50.827Z,62.72
2018-04-23T17:51:16.879Z,63.25
2018-04-23T17:53:42.896Z,63.05
2018-04-23T17:56:09.136Z,62.63
2018-04-23T17:58:35.209Z,62.50
2018-04-23T18:01:01.298Z,61.87
2018-04-23T18:03:27.382Z,61.46
2018-04-23T18:05:53.501Z,62.02
2018-04-23T18:08:19.613Z,61.27
2018-04-23T18:10:45.728Z,61.50
2018-04-23T18:13:11.747Z,61.73
2018-04-23T18:15:38.060Z,61.81
2018-04-23T18:18:04.239Z,61.32
2018-04-23T18:20:30.314Z,61.38
2018-04-23T18:22:56.432Z,61.01
2018-04-23T18:25:22.470Z,61.48
2018-04-23T18:27:48.615Z,61.75
2018-04-23T18:30:14.767Z,61.78
2018-04-23T18:32:40.829Z,61.60
2018-04-23T18:35:06.959Z,61.95
2018-04-23T18:37:33.097Z,62.40
2018-04-23T18:39:59.190Z,62.54
2018-04-23T18:42:25.254Z,63.08
2018-04-23T18:44:51.302Z,63.21
2018-04-23T18:47:17.522Z,62.82
2018-04-23T18:49:44.271Z,63.42
2018-04-23T18:52:10.262Z,63.72
2018-04-23T18:54:36.387Z,63.72
2018-04-23T18:57:02.493Z,64.13
2018-04-23T18:59:28.623Z,64.84
2018-04-23T19:01:54.714Z,65.16
2018-04-23T19:04:20.788Z,65.47
2018-04-23T19:06:46.890Z,65.62
2018-04-23T19:09:12.936Z,65.85
2018-04-23T19:11:39.087Z,65.92
2018-04-23T19:14:05.105Z,65.82
2018-04-23T19:16:31.232Z,66.13
2018-04-23T19:18:57.913Z,66.14
2018-04-23T19:21:23.961Z,66.14
2018-04-23T19:23:50.073Z,66.43
2018-04-23T19:26:16.223Z,66.68
2018-04-23T19:28:42.265Z,66.58
2018-04-23T19:31:08.342Z,67.18
2018-04-23T19:33:34.356Z,67.37
2018-04-23T19:36:00.459Z,67.49
2018-04-23T19:38:26.497Z,68.01
2018-04-23T19:40:52.550Z,68.61
2018-04-23T19:43:19.165Z,69.53
2018-04-23T19:45:45.289Z,70.18
2018-04-23T19:48:11.426Z,70.21
2018-04-23T19:50:37.476Z,71.17
2018-04-23T19:53:03.577Z,71.93
2018-04-23T19:55:29.717Z,72.25
2018-04-23T19:57:55.875Z,72.51
2018-04-23T20:00:21.937Z,72.34
2018-04-23T20:02:48.018Z,72.50
2018-04-23T20:05:14.152Z,73.57
2018-04-23T20:07:40.221Z,73.81
2018-04-23T20:10:06.302Z,73.23
2018-04-23T20:12:32.383Z,73.91
2018-04-23T20:14:58.536Z,73.84
2018-04-23T20:17:24.510Z,73.80
2018-04-23T20:19:50.522Z,73.39
2018-04-23T20:22:16.602Z,73.94
2018-04-23T20:24:42.623Z,73.24
2018-04-23T20:27:08.765Z,72.97
2018-04-23T20:29:34.832Z,72.49
2018-04-23T20:32:00.962Z,72.17
2018-04-23T20:34:26.961Z,71.87
2018-04-23T20:36:52.996Z,71.78
2018-04-23T20:39:19.107Z,71.85
2018-04-23T20:41:45.318Z,71.62
2018-04-23T20:44:11.492Z,71.68
2018-04-23T20:46:37.520Z,71.57
2018-04-23T20:49:03.610Z,71.29
2018-04-23T20:51:29.758Z,71.03
2018-04-23T20:53:55.782Z,71.06
2018-04-23T20:56:21.810Z,71.51
2018-04-23T20:58:47.881Z,71.43
2018-04-23T21:01:13.983Z,72.36
2018-04-23T21:03:40.089Z,72.30
2018-04-23T21:06:06.141Z,72.51
2018-04-23T21:08:32.156Z,73.10
2018-04-23T21:10:58.234Z,73.48
2018-04-23T21:13:24.298Z,73.91
2018-04-23T21:15:50.329Z,73.67
2018-04-23T21:18:16.388Z,74.62
2018-04-23T21:20:42.451Z,74.61
2018-04-23T21:23:09.115Z,73.98
2018-04-23T21:25:35.148Z,74.74
2018-04-23T21:28:01.189Z,74.69
2018-04-23T21:30:27.315Z,74.79
2018-04-23T21:32:53.464Z,74.70
2018-04-23T21:35:19.492Z,74.32
2018-04-23T21:37:45.647Z,74.76
2018-04-23T21:40:11.673Z,74.55
2018-04-23T21:42:37.786Z,74.73
2018-04-23T21:45:03.827Z,74.93
2018-04-23T21:47:29.869Z,74.87
2018-04-23T21:49:55.956Z,74.79
2018-04-23T21:52:22.040Z,74.98
2018-04-23T21:54:48.071Z,74.83
2018-04-23T21:57:14.078Z,74.81
2018-04-23T21:59:40.796Z,75.23
2018-04-23T22:02:06.817Z,75.26
2018-04-23T22:04:32.865Z,75.36
2018-04-23T22:06:58.950Z,75.42
2018-04-23T22:09:25.032Z,75.38
2018-04-23T22:11:51.028Z,75.67
2018-04-23T22:14:17.097Z,75.49
2018-04-23T22:16:43.167Z,75.78
2018-04-23T22:19:09.300Z,75.97
2018-04-23T22:21:35.423Z,76.33
2018-04-23T22:24:01.429Z,76.48
2018-04-23T22:26:27.558Z,76.53
2018-04-23T22:28:53.911Z,76.73
2018-04-23T22:31:19.976Z,76.70
2018-04-23T22:33:46.029Z,76.69
2018-04-23T22:36:12.063Z,76.67
2018-04-23T22:38:38.106Z,76.65
2018-04-23T22:41:05.192Z,77.25
2018-04-23T22:43:32.159Z,77.43
2018-04-23T22:45:58.213Z,77.22
2018-04-23T22:48:24.252Z,77.74
2018-04-23T22:50:50.281Z,77.86
2018-04-23T22:53:16.290Z,78.31
2018-04-23T22:55:42.338Z,78.11
2018-04-23T22:58:08.397Z,78.41
2018-04-23T23:00:34.442Z,78.55
2018-04-23T23:03:00.449Z,78.35
2018-04-23T23:05:26.477Z,78.57
2018-04-23T23:07:52.496Z,78.67
2018-04-23T23:10:18.522Z,78.86
2018-04-23T23:12:44.560Z,78.95
2018-04-23T23:15:11.176Z,78.38
2018-04-23T23:17:37.300Z,79.17
2018-04-23T23:20:03.372Z,79.19
2018-04-23T23:22:29.398Z,78.82
2018-04-23T23:24:55.915Z,78.99
2018-04-23T23:27:22.016Z,79.22
2018-04-23T23:29:48.180Z,79.34
2018-04-23T23:32:14.187Z,79.24
2018-04-23T23:34:40.176Z,79.81
2018-04-23T23:37:06.212Z,79.62
2018-04-23T23:39:32.233Z,79.55
2018-04-23T23:41:58.245Z,79.97
2018-04-23T23:44:24.270Z,79.76
2018-04-23T23:46:50.360Z,79.95
2018-04-23T23:49:16.410Z,80.37
2018-04-23T23:51:42.438Z,79.87
2018-04-23T23:54:08.485Z,80.12
2018-04-23T23:56:34.496Z,80.17
2018-04-23T23:59:00.512Z,80.46
